Flight Track Log - Related Links

Times and Time Zones

All times are in EDT time to prevent confusion due to time zone crossing. See the N700BE flight status page for this flight to view local times or setup timezone preferences in your user account.

Time Position Orientation Groundspeed Altitude Reporting Facility
EDT Latitude Longitude Course Direction KTS MPH feet Rate Location/Type
Tue 12:06:42 PM 27.9167 -82.5333 180° South 173 199 3,000  Level Tampa TRACON
Tue 12:08:13 PM 27.8333 -82.5333 180° South 220 253 4,300 1,152 Climbing Tampa TRACON
Tue 12:09:13 PM 27.8167 -82.4667 106° East 202 232 5,900 1,190 Climbing Tampa TRACON
Tue 12:10:19 PM 27.8500 -82.4167 53° Northeast 225 259 6,800 367 Climbing Tampa TRACON
Tue 12:12:13 PM 27.9333 -82.3167 47° Northeast 253 291 7,000 69 Climbing Tampa TRACON
Tue 12:13:13 PM 27.9833 -82.2500 50° Northeast 251 289 7,000  Level Tampa TRACON
Tue 12:14:13 PM 28.0500 -82.2000 33° Northeast 248 285 7,000  Level Tampa TRACON
Tue 12:16:18 PM 28.1500 -82.0833 46° Northeast 249 287 7,000  Level Orlando TRACON
Tue 12:17:12 PM 28.1833 -82.0333 53° Northeast 249 287 7,000  Level Orlando TRACON
Tue 12:18:25 PM 28.2500 -81.9667 41° Northeast 252 290 7,000  Level Orlando TRACON
Tue 12:19:25 PM 28.3000 -81.9167 41° Northeast 251 289 7,000 -429 Level Orlando TRACON
Tue 12:20:31 PM 28.3500 -81.8592 45° Northeast 246 283 6,100 -1,000 Descending Miami Center
Tue 12:21:19 PM 28.3667 -81.8000 72° East 249 287 5,100 -1,223 Descending Orlando TRACON
Tue 12:22:14 PM 28.3833 -81.7333 74° East 248 285 4,000 -550 Descending Orlando TRACON
Tue 12:23:19 PM 28.4167 -81.6500 66° East 228 262 4,000  Level Orlando TRACON
Tue 12:24:14 PM 28.4167 -81.5833 90° East 228 262 4,000  Level Orlando TRACON
Tue 12:25:14 PM 28.4333 -81.5167 74° East 228 262 4,000  Level Orlando TRACON
Tue 12:26:26 PM 28.4500 -81.4333 77° East 232 267 4,000  Level Orlando TRACON
Tue 12:27:26 PM 28.4500 -81.3667 90° East 221 254 4,000  Level Orlando TRACON
Tue 12:28:26 PM 28.4667 -81.3000 74° East 192 221 4,000 -365 Level Orlando TRACON
Tue 12:29:21 PM 28.4667 -81.2500 90° East 188 216 3,300 -835 Descending Orlando TRACON
Tue 12:30:21 PM 28.4667 -81.1833 90° East 188 216 2,400 -700 Descending Orlando TRACON
Tue 12:31:21 PM 28.5000 -81.1500 41° Northeast 166 191 1,900 -381 Descending Orlando TRACON
Tue 12:32:27 PM 28.5500 -81.1667 344° North 176 203 1,600 -143 Descending Orlando TRACON
Tue 12:33:27 PM 28.5833 -81.1833 336° Northwest 134 154 1,600 -100 Level Orlando TRACON
Tue 12:34:27 PM 28.5833 -81.2333 270° West 110 127 1,400 -150 Descending Orlando TRACON
Tue 12:35:27 PM 28.5667 -81.2667 240° Southwest 117 135 1,300 -365 Descending Orlando TRACON
Tue 12:36:22 PM 28.5667 -81.2833 270° West 112 129 700 -655 Descending Orlando TRACON

Login

Don't have an account? Register now (free) for customized features, flight alerts, and more!